sensor_id;sensor_type;location;lat;lon;timestamp;P1;durP1;ratioP1;P2;durP2;ratioP2
45368;SDS011;51342;55.250;37.668;2023-07-13T00:02:03;4.53;;;2.13;;
45368;SDS011;51342;55.250;37.668;2023-07-13T00:04:34;3.05;;;2.10;;
45368;SDS011;51342;55.250;37.668;2023-07-13T00:07:07;4.45;;;2.15;;
45368;SDS011;51342;55.250;37.668;2023-07-13T00:09:39;3.10;;;2.00;;
45368;SDS011;51342;55.250;37.668;2023-07-13T00:12:24;3.47;;;2.10;;
45368;SDS011;51342;55.250;37.668;2023-07-13T00:17:53;3.25;;;2.00;;
45368;SDS011;51342;55.250;37.668;2023-07-13T00:20:26;5.78;;;2.53;;
45368;SDS011;51342;55.250;37.668;2023-07-13T00:22:57;2.78;;;1.70;;
45368;SDS011;51342;55.250;37.668;2023-07-13T00:25:28;3.50;;;1.98;;
45368;SDS011;51342;55.250;37.668;2023-07-13T00:28:00;4.68;;;2.03;;
45368;SDS011;51342;55.250;37.668;2023-07-13T00:30:31;3.88;;;1.85;;
45368;SDS011;51342;55.250;37.668;2023-07-13T00:33:05;2.75;;;1.90;;
45368;SDS011;51342;55.250;37.668;2023-07-13T00:35:36;2.80;;;1.90;;
45368;SDS011;51342;55.250;37.668;2023-07-13T00:38:09;3.45;;;1.95;;
45368;SDS011;51342;55.250;37.668;2023-07-13T00:40:41;3.00;;;2.05;;
45368;SDS011;51342;55.250;37.668;2023-07-13T00:43:14;2.65;;;2.00;;
45368;SDS011;51342;55.250;37.668;2023-07-13T00:48:23;4.43;;;2.15;;
45368;SDS011;51342;55.250;37.668;2023-07-13T00:50:57;3.13;;;1.80;;
45368;SDS011;51342;55.250;37.668;2023-07-13T00:53:31;3.08;;;1.83;;
45368;SDS011;51342;55.250;37.668;2023-07-13T00:56:04;3.03;;;2.03;;
45368;SDS011;51342;55.250;37.668;2023-07-13T00:58:37;3.58;;;1.83;;
45368;SDS011;51342;55.250;37.668;2023-07-13T01:01:09;3.67;;;2.35;;
45368;SDS011;51342;55.250;37.668;2023-07-13T01:03:41;3.92;;;2.03;;
45368;SDS011;51342;55.250;37.668;2023-07-13T01:06:12;2.47;;;1.98;;
45368;SDS011;51342;55.250;37.668;2023-07-13T01:08:44;3.05;;;2.22;;
45368;SDS011;51342;55.250;37.668;2023-07-13T01:11:19;2.97;;;2.10;;
45368;SDS011;51342;55.250;37.668;2023-07-13T01:13:52;2.88;;;2.17;;
45368;SDS011;51342;55.250;37.668;2023-07-13T01:16:25;3.72;;;2.30;;
45368;SDS011;51342;55.250;37.668;2023-07-13T01:19:01;3.30;;;2.00;;
45368;SDS011;51342;55.250;37.668;2023-07-13T01:21:39;3.85;;;1.98;;
45368;SDS011;51342;55.250;37.668;2023-07-13T01:24:13;5.07;;;2.20;;
45368;SDS011;51342;55.250;37.668;2023-07-13T01:26:45;3.17;;;2.20;;
45368;SDS011;51342;55.250;37.668;2023-07-13T01:29:16;4.47;;;2.20;;
45368;SDS011;51342;55.250;37.668;2023-07-13T01:31:47;3.95;;;2.13;;
45368;SDS011;51342;55.250;37.668;2023-07-13T01:34:19;3.17;;;2.35;;
45368;SDS011;51342;55.250;37.668;2023-07-13T01:36:50;3.30;;;2.10;;
45368;SDS011;51342;55.250;37.668;2023-07-13T01:39:24;2.90;;;2.10;;
45368;SDS011;51342;55.250;37.668;2023-07-13T01:41:55;3.60;;;2.13;;
45368;SDS011;51342;55.250;37.668;2023-07-13T01:44:27;2.33;;;1.90;;
45368;SDS011;51342;55.250;37.668;2023-07-13T01:46:58;3.20;;;2.33;;
45368;SDS011;51342;55.250;37.668;2023-07-13T01:49:30;2.60;;;2.15;;
45368;SDS011;51342;55.250;37.668;2023-07-13T01:52:02;2.88;;;1.90;;
45368;SDS011;51342;55.250;37.668;2023-07-13T01:54:38;3.22;;;2.30;;
45368;SDS011;51342;55.250;37.668;2023-07-13T01:57:09;3.72;;;2.00;;
45368;SDS011;51342;55.250;37.668;2023-07-13T01:59:40;3.60;;;2.17;;
45368;SDS011;51342;55.250;37.668;2023-07-13T02:02:12;3.97;;;2.60;;
45368;SDS011;51342;55.250;37.668;2023-07-13T02:04:43;2.78;;;1.98;;
45368;SDS011;51342;55.250;37.668;2023-07-13T02:07:14;3.45;;;2.03;;
45368;SDS011;51342;55.250;37.668;2023-07-13T02:09:46;5.05;;;2.00;;
45368;SDS011;51342;55.250;37.668;2023-07-13T02:12:17;4.32;;;2.22;;
45368;SDS011;51342;55.250;37.668;2023-07-13T02:14:49;3.78;;;2.40;;
45368;SDS011;51342;55.250;37.668;2023-07-13T02:17:21;2.47;;;2.00;;
45368;SDS011;51342;55.250;37.668;2023-07-13T02:19:52;3.63;;;2.35;;
45368;SDS011;51342;55.250;37.668;2023-07-13T02:22:25;3.00;;;2.25;;
45368;SDS011;51342;55.250;37.668;2023-07-13T02:24:56;4.78;;;2.33;;
45368;SDS011;51342;55.250;37.668;2023-07-13T02:27:28;2.47;;;2.00;;
45368;SDS011;51342;55.250;37.668;2023-07-13T02:29:59;3.35;;;2.20;;
45368;SDS011;51342;55.250;37.668;2023-07-13T02:32:31;4.57;;;2.20;;
45368;SDS011;51342;55.250;37.668;2023-07-13T02:35:02;2.58;;;2.10;;
45368;SDS011;51342;55.250;37.668;2023-07-13T02:37:34;3.58;;;2.10;;
45368;SDS011;51342;55.250;37.668;2023-07-13T02:40:07;4.40;;;2.28;;
45368;SDS011;51342;55.250;37.668;2023-07-13T02:42:40;3.25;;;2.00;;
45368;SDS011;51342;55.250;37.668;2023-07-13T02:45:12;3.45;;;2.30;;
45368;SDS011;51342;55.250;37.668;2023-07-13T02:47:45;4.60;;;2.15;;
45368;SDS011;51342;55.250;37.668;2023-07-13T02:50:17;3.10;;;2.17;;
45368;SDS011;51342;55.250;37.668;2023-07-13T02:52:48;5.13;;;2.65;;
45368;SDS011;51342;55.250;37.668;2023-07-13T02:55:20;3.70;;;2.17;;
45368;SDS011;51342;55.250;37.668;2023-07-13T02:57:52;3.05;;;2.38;;
45368;SDS011;51342;55.250;37.668;2023-07-13T03:00:23;3.42;;;1.95;;
45368;SDS011;51342;55.250;37.668;2023-07-13T03:02:55;4.38;;;2.50;;
45368;SDS011;51342;55.250;37.668;2023-07-13T03:05:28;4.55;;;1.90;;
45368;SDS011;51342;55.250;37.668;2023-07-13T03:08:01;3.83;;;2.47;;
45368;SDS011;51342;55.250;37.668;2023-07-13T03:10:37;3.97;;;2.10;;
45368;SDS011;51342;55.250;37.668;2023-07-13T03:13:12;3.97;;;2.80;;
45368;SDS011;51342;55.250;37.668;2023-07-13T03:15:48;2.67;;;2.00;;
45368;SDS011;51342;55.250;37.668;2023-07-13T03:18:19;4.05;;;2.40;;
45368;SDS011;51342;55.250;37.668;2023-07-13T03:20:51;3.03;;;2.20;;
45368;SDS011;51342;55.250;37.668;2023-07-13T03:23:23;3.60;;;2.38;;
45368;SDS011;51342;55.250;37.668;2023-07-13T03:26:06;3.22;;;2.17;;
45368;SDS011;51342;55.250;37.668;2023-07-13T03:28:41;2.78;;;2.00;;
45368;SDS011;51342;55.250;37.668;2023-07-13T03:31:18;3.33;;;2.17;;
45368;SDS011;51342;55.250;37.668;2023-07-13T03:33:51;3.13;;;2.40;;
45368;SDS011;51342;55.250;37.668;2023-07-13T03:36:28;3.97;;;2.38;;
45368;SDS011;51342;55.250;37.668;2023-07-13T03:39:08;3.55;;;2.38;;
45368;SDS011;51342;55.250;37.668;2023-07-13T03:41:50;4.68;;;2.30;;
45368;SDS011;51342;55.250;37.668;2023-07-13T03:44:25;3.05;;;2.13;;
45368;SDS011;51342;55.250;37.668;2023-07-13T03:46:59;2.90;;;2.00;;
45368;SDS011;51342;55.250;37.668;2023-07-13T03:49:34;3.20;;;2.30;;
45368;SDS011;51342;55.250;37.668;2023-07-13T03:52:06;3.00;;;2.30;;
45368;SDS011;51342;55.250;37.668;2023-07-13T03:54:37;4.43;;;2.28;;
45368;SDS011;51342;55.250;37.668;2023-07-13T03:57:09;3.47;;;1.92;;
45368;SDS011;51342;55.250;37.668;2023-07-13T03:59:41;3.22;;;2.30;;
45368;SDS011;51342;55.250;37.668;2023-07-13T04:02:13;4.10;;;2.10;;
45368;SDS011;51342;55.250;37.668;2023-07-13T04:04:44;3.42;;;2.13;;
45368;SDS011;51342;55.250;37.668;2023-07-13T04:07:17;2.72;;;2.03;;
45368;SDS011;51342;55.250;37.668;2023-07-13T04:09:49;5.10;;;2.20;;
45368;SDS011;51342;55.250;37.668;2023-07-13T04:12:20;3.70;;;2.20;;
45368;SDS011;51342;55.250;37.668;2023-07-13T04:14:54;4.05;;;2.05;;
45368;SDS011;51342;55.250;37.668;2023-07-13T04:21:03;4.30;;;2.10;;
45368;SDS011;51342;55.250;37.668;2023-07-13T04:23:35;2.70;;;2.22;;
45368;SDS011;51342;55.250;37.668;2023-07-13T04:26:08;4.22;;;2.30;;
45368;SDS011;51342;55.250;37.668;2023-07-13T04:28:39;2.75;;;2.22;;
45368;SDS011;51342;55.250;37.668;2023-07-13T04:31:10;2.58;;;2.20;;
45368;SDS011;51342;55.250;37.668;2023-07-13T04:33:42;3.00;;;2.10;;
45368;SDS011;51342;55.250;37.668;2023-07-13T04:36:13;3.42;;;2.40;;
45368;SDS011;51342;55.250;37.668;2023-07-13T04:38:45;3.83;;;2.30;;
45368;SDS011;51342;55.250;37.668;2023-07-13T04:41:17;2.97;;;2.28;;
45368;SDS011;51342;55.250;37.668;2023-07-13T04:43:48;3.72;;;2.25;;
45368;SDS011;51342;55.250;37.668;2023-07-13T04:46:19;5.03;;;2.10;;
45368;SDS011;51342;55.250;37.668;2023-07-13T04:48:51;4.30;;;2.33;;
45368;SDS011;51342;55.250;37.668;2023-07-13T04:51:24;3.60;;;2.10;;
45368;SDS011;51342;55.250;37.668;2023-07-13T04:53:56;3.45;;;2.30;;
45368;SDS011;51342;55.250;37.668;2023-07-13T04:56:28;4.63;;;2.50;;
45368;SDS011;51342;55.250;37.668;2023-07-13T04:58:59;5.45;;;2.05;;
45368;SDS011;51342;55.250;37.668;2023-07-13T05:01:31;3.00;;;2.10;;
45368;SDS011;51342;55.250;37.668;2023-07-13T05:04:02;4.45;;;2.45;;
45368;SDS011;51342;55.250;37.668;2023-07-13T05:06:33;6.13;;;2.20;;
45368;SDS011;51342;55.250;37.668;2023-07-13T05:09:05;4.75;;;2.20;;
45368;SDS011;51342;55.250;37.668;2023-07-13T05:11:38;3.53;;;2.38;;
45368;SDS011;51342;55.250;37.668;2023-07-13T05:14:10;4.03;;;2.10;;
45368;SDS011;51342;55.250;37.668;2023-07-13T05:16:41;3.30;;;2.20;;
45368;SDS011;51342;55.250;37.668;2023-07-13T05:19:13;2.47;;;2.05;;
45368;SDS011;51342;55.250;37.668;2023-07-13T05:21:44;3.08;;;1.80;;
45368;SDS011;51342;55.250;37.668;2023-07-13T05:24:16;4.25;;;2.47;;
45368;SDS011;51342;55.250;37.668;2023-07-13T05:26:47;3.78;;;2.17;;
45368;SDS011;51342;55.250;37.668;2023-07-13T05:29:19;3.63;;;2.15;;
45368;SDS011;51342;55.250;37.668;2023-07-13T05:31:52;3.05;;;2.60;;
45368;SDS011;51342;55.250;37.668;2023-07-13T05:34:23;3.97;;;2.25;;
45368;SDS011;51342;55.250;37.668;2023-07-13T05:36:54;4.68;;;2.67;;
45368;SDS011;51342;55.250;37.668;2023-07-13T05:39:26;4.75;;;3.25;;
45368;SDS011;51342;55.250;37.668;2023-07-13T05:41:58;2.88;;;1.88;;
45368;SDS011;51342;55.250;37.668;2023-07-13T05:44:29;4.05;;;2.28;;
45368;SDS011;51342;55.250;37.668;2023-07-13T05:47:01;4.10;;;2.30;;
45368;SDS011;51342;55.250;37.668;2023-07-13T05:49:32;2.70;;;2.38;;
45368;SDS011;51342;55.250;37.668;2023-07-13T05:52:04;3.53;;;2.28;;
45368;SDS011;51342;55.250;37.668;2023-07-13T05:54:36;4.40;;;2.55;;
45368;SDS011;51342;55.250;37.668;2023-07-13T05:57:07;4.65;;;2.55;;
45368;SDS011;51342;55.250;37.668;2023-07-13T05:59:39;3.83;;;2.28;;
45368;SDS011;51342;55.250;37.668;2023-07-13T06:02:10;4.05;;;2.33;;
45368;SDS011;51342;55.250;37.668;2023-07-13T06:04:42;2.88;;;2.28;;
45368;SDS011;51342;55.250;37.668;2023-07-13T06:07:13;3.95;;;2.35;;
45368;SDS011;51342;55.250;37.668;2023-07-13T06:09:45;3.10;;;2.60;;
45368;SDS011;51342;55.250;37.668;2023-07-13T06:12:17;3.00;;;2.20;;
45368;SDS011;51342;55.250;37.668;2023-07-13T06:14:48;3.45;;;2.20;;
45368;SDS011;51342;55.250;37.668;2023-07-13T06:21:17;4.15;;;2.15;;
45368;SDS011;51342;55.250;37.668;2023-07-13T06:23:50;3.83;;;2.30;;
45368;SDS011;51342;55.250;37.668;2023-07-13T06:26:22;4.82;;;2.35;;
45368;SDS011;51342;55.250;37.668;2023-07-13T06:28:54;4.78;;;2.40;;
45368;SDS011;51342;55.250;37.668;2023-07-13T06:31:25;3.92;;;2.50;;
45368;SDS011;51342;55.250;37.668;2023-07-13T06:33:57;3.33;;;2.05;;
45368;SDS011;51342;55.250;37.668;2023-07-13T06:36:28;2.90;;;2.40;;
45368;SDS011;51342;55.250;37.668;2023-07-13T06:39:00;4.18;;;2.35;;
45368;SDS011;51342;55.250;37.668;2023-07-13T06:41:31;2.30;;;1.98;;
45368;SDS011;51342;55.250;37.668;2023-07-13T06:44:04;2.80;;;2.15;;
45368;SDS011;51342;55.250;37.668;2023-07-13T06:46:36;2.65;;;1.92;;
45368;SDS011;51342;55.250;37.668;2023-07-13T06:49:08;3.05;;;2.42;;
45368;SDS011;51342;55.250;37.668;2023-07-13T06:51:43;3.20;;;2.10;;
45368;SDS011;51342;55.250;37.668;2023-07-13T06:54:15;3.33;;;2.13;;
45368;SDS011;51342;55.250;37.668;2023-07-13T06:56:46;2.58;;;1.92;;
45368;SDS011;51342;55.250;37.668;2023-07-13T06:59:18;4.22;;;2.20;;
45368;SDS011;51342;55.250;37.668;2023-07-13T07:01:50;3.22;;;1.98;;
45368;SDS011;51342;55.250;37.668;2023-07-13T07:04:21;2.60;;;2.17;;
45368;SDS011;51342;55.250;37.668;2023-07-13T07:06:53;4.13;;;2.38;;
45368;SDS011;51342;55.250;37.668;2023-07-13T07:09:25;3.85;;;2.10;;
45368;SDS011;51342;55.250;37.668;2023-07-13T07:11:57;3.67;;;1.98;;
45368;SDS011;51342;55.250;37.668;2023-07-13T07:14:28;5.40;;;2.33;;
45368;SDS011;51342;55.250;37.668;2023-07-13T07:17:00;2.95;;;2.00;;
45368;SDS011;51342;55.250;37.668;2023-07-13T07:19:32;3.55;;;2.30;;
45368;SDS011;51342;55.250;37.668;2023-07-13T07:22:05;4.78;;;2.33;;
45368;SDS011;51342;55.250;37.668;2023-07-13T07:24:37;4.50;;;2.13;;
45368;SDS011;51342;55.250;37.668;2023-07-13T07:27:09;5.50;;;3.13;;
45368;SDS011;51342;55.250;37.668;2023-07-13T07:29:41;3.45;;;2.28;;
45368;SDS011;51342;55.250;37.668;2023-07-13T07:32:12;5.00;;;2.60;;
45368;SDS011;51342;55.250;37.668;2023-07-13T07:34:44;2.95;;;2.00;;
45368;SDS011;51342;55.250;37.668;2023-07-13T07:37:16;3.67;;;2.30;;
45368;SDS011;51342;55.250;37.668;2023-07-13T07:39:47;3.05;;;2.10;;
45368;SDS011;51342;55.250;37.668;2023-07-13T07:42:19;3.35;;;2.47;;
45368;SDS011;51342;55.250;37.668;2023-07-13T07:44:51;3.28;;;2.40;;
45368;SDS011;51342;55.250;37.668;2023-07-13T07:47:23;3.75;;;2.20;;
45368;SDS011;51342;55.250;37.668;2023-07-13T07:49:55;2.70;;;2.33;;
45368;SDS011;51342;55.250;37.668;2023-07-13T07:52:27;4.10;;;2.20;;
45368;SDS011;51342;55.250;37.668;2023-07-13T07:54:58;3.30;;;2.15;;
45368;SDS011;51342;55.250;37.668;2023-07-13T07:57:30;3.42;;;2.60;;
45368;SDS011;51342;55.250;37.668;2023-07-13T08:00:02;5.18;;;2.50;;
45368;SDS011;51342;55.250;37.668;2023-07-13T08:02:45;5.70;;;2.83;;
45368;SDS011;51342;55.250;37.668;2023-07-13T08:05:20;5.03;;;2.05;;
45368;SDS011;51342;55.250;37.668;2023-07-13T08:07:51;3.92;;;2.15;;
45368;SDS011;51342;55.250;37.668;2023-07-13T08:10:23;3.42;;;2.10;;
45368;SDS011;51342;55.250;37.668;2023-07-13T08:12:55;5.97;;;2.78;;
45368;SDS011;51342;55.250;37.668;2023-07-13T08:15:27;3.30;;;2.58;;
45368;SDS011;51342;55.250;37.668;2023-07-13T08:21:58;4.80;;;2.22;;
45368;SDS011;51342;55.250;37.668;2023-07-13T08:24:30;3.65;;;2.20;;
45368;SDS011;51342;55.250;37.668;2023-07-13T08:27:01;7.47;;;2.45;;
45368;SDS011;51342;55.250;37.668;2023-07-13T08:29:32;4.25;;;2.40;;
45368;SDS011;51342;55.250;37.668;2023-07-13T08:32:04;3.60;;;2.40;;
45368;SDS011;51342;55.250;37.668;2023-07-13T08:34:40;3.58;;;2.17;;
45368;SDS011;51342;55.250;37.668;2023-07-13T08:37:11;5.05;;;2.15;;
45368;SDS011;51342;55.250;37.668;2023-07-13T08:39:43;3.88;;;2.38;;
45368;SDS011;51342;55.250;37.668;2023-07-13T08:44:59;3.72;;;2.28;;
45368;SDS011;51342;55.250;37.668;2023-07-13T08:47:40;3.33;;;2.33;;
45368;SDS011;51342;55.250;37.668;2023-07-13T08:50:19;10.27;;;2.70;;
45368;SDS011;51342;55.250;37.668;2023-07-13T08:52:55;4.88;;;2.53;;
45368;SDS011;51342;55.250;37.668;2023-07-13T08:55:30;3.30;;;1.90;;
45368;SDS011;51342;55.250;37.668;2023-07-13T08:58:11;3.30;;;2.50;;
45368;SDS011;51342;55.250;37.668;2023-07-13T09:00:56;3.90;;;2.65;;
45368;SDS011;51342;55.250;37.668;2023-07-13T09:03:40;4.90;;;2.78;;
45368;SDS011;51342;55.250;37.668;2023-07-13T09:06:17;4.78;;;2.22;;
45368;SDS011;51342;55.250;37.668;2023-07-13T09:09:04;4.87;;;2.10;;
45368;SDS011;51342;55.250;37.668;2023-07-13T09:12:09;5.07;;;2.25;;
45368;SDS011;51342;55.250;37.668;2023-07-13T09:14:47;3.50;;;2.47;;
45368;SDS011;51342;55.250;37.668;2023-07-13T09:17:31;4.40;;;2.15;;
45368;SDS011;51342;55.250;37.668;2023-07-13T09:22:44;3.75;;;2.30;;
45368;SDS011;51342;55.250;37.668;2023-07-13T09:28:22;2.97;;;2.03;;
45368;SDS011;51342;55.250;37.668;2023-07-13T09:31:05;4.78;;;2.80;;
45368;SDS011;51342;55.250;37.668;2023-07-13T09:33:43;4.30;;;2.50;;
45368;SDS011;51342;55.250;37.668;2023-07-13T09:39:04;3.67;;;2.30;;
45368;SDS011;51342;55.250;37.668;2023-07-13T09:44:56;3.92;;;2.70;;
45368;SDS011;51342;55.250;37.668;2023-07-13T09:47:30;5.65;;;2.78;;
45368;SDS011;51342;55.250;37.668;2023-07-13T09:50:09;3.40;;;2.53;;
45368;SDS011;51342;55.250;37.668;2023-07-13T09:52:46;5.00;;;2.45;;
45368;SDS011;51342;55.250;37.668;2023-07-13T09:55:27;3.53;;;2.25;;
45368;SDS011;51342;55.250;37.668;2023-07-13T10:00:43;4.80;;;2.40;;
45368;SDS011;51342;55.250;37.668;2023-07-13T10:03:31;3.30;;;2.60;;
45368;SDS011;51342;55.250;37.668;2023-07-13T10:06:15;4.38;;;2.72;;
45368;SDS011;51342;55.250;37.668;2023-07-13T10:08:51;5.57;;;2.40;;
45368;SDS011;51342;55.250;37.668;2023-07-13T10:11:28;5.15;;;2.25;;
45368;SDS011;51342;55.250;37.668;2023-07-13T10:14:09;8.30;;;2.72;;
45368;SDS011;51342;55.250;37.668;2023-07-13T10:16:45;4.60;;;2.47;;
45368;SDS011;51342;55.250;37.668;2023-07-13T10:24:58;4.50;;;2.50;;
45368;SDS011;51342;55.250;37.668;2023-07-13T10:27:35;7.00;;;2.42;;
45368;SDS011;51342;55.250;37.668;2023-07-13T10:30:15;3.90;;;2.45;;
45368;SDS011;51342;55.250;37.668;2023-07-13T10:32:48;3.97;;;2.30;;
45368;SDS011;51342;55.250;37.668;2023-07-13T10:35:21;4.35;;;2.70;;
45368;SDS011;51342;55.250;37.668;2023-07-13T10:37:58;5.70;;;2.58;;
45368;SDS011;51342;55.250;37.668;2023-07-13T10:40:39;5.45;;;2.10;;
45368;SDS011;51342;55.250;37.668;2023-07-13T10:43:26;4.85;;;2.30;;
45368;SDS011;51342;55.250;37.668;2023-07-13T10:46:03;5.55;;;2.50;;
45368;SDS011;51342;55.250;37.668;2023-07-13T10:48:38;4.45;;;2.72;;
45368;SDS011;51342;55.250;37.668;2023-07-13T10:51:14;4.40;;;2.38;;
45368;SDS011;51342;55.250;37.668;2023-07-13T10:54:11;3.55;;;2.05;;
45368;SDS011;51342;55.250;37.668;2023-07-13T10:57:14;2.97;;;2.20;;
45368;SDS011;51342;55.250;37.668;2023-07-13T10:59:49;4.15;;;2.33;;
45368;SDS011;51342;55.250;37.668;2023-07-13T11:05:49;6.03;;;2.90;;
45368;SDS011;51342;55.250;37.668;2023-07-13T11:08:36;3.38;;;2.47;;
45368;SDS011;51342;55.250;37.668;2023-07-13T11:14:00;2.88;;;2.20;;
45368;SDS011;51342;55.250;37.668;2023-07-13T11:16:42;3.58;;;2.45;;
45368;SDS011;51342;55.250;37.668;2023-07-13T11:24:51;2.95;;;2.30;;
45368;SDS011;51342;55.250;37.668;2023-07-13T11:27:35;7.78;;;2.42;;
45368;SDS011;51342;55.250;37.668;2023-07-13T11:33:04;4.68;;;2.50;;
45368;SDS011;51342;55.250;37.668;2023-07-13T11:36:06;5.93;;;2.58;;
45368;SDS011;51342;55.250;37.668;2023-07-13T11:38:51;4.20;;;2.45;;
45368;SDS011;51342;55.250;37.668;2023-07-13T11:41:53;3.03;;;2.15;;
45368;SDS011;51342;55.250;37.668;2023-07-13T11:44:28;3.22;;;2.00;;
45368;SDS011;51342;55.250;37.668;2023-07-13T11:47:11;4.25;;;2.45;;
45368;SDS011;51342;55.250;37.668;2023-07-13T11:49:50;7.60;;;2.80;;
45368;SDS011;51342;55.250;37.668;2023-07-13T11:52:32;4.85;;;2.80;;
45368;SDS011;51342;55.250;37.668;2023-07-13T11:55:14;3.15;;;2.35;;
45368;SDS011;51342;55.250;37.668;2023-07-13T11:57:54;4.82;;;2.53;;
45368;SDS011;51342;55.250;37.668;2023-07-13T12:00:31;5.75;;;2.92;;
45368;SDS011;51342;55.250;37.668;2023-07-13T12:03:10;4.93;;;2.72;;
45368;SDS011;51342;55.250;37.668;2023-07-13T12:06:00;4.68;;;2.30;;
45368;SDS011;51342;55.250;37.668;2023-07-13T12:08:37;3.83;;;2.35;;
45368;SDS011;51342;55.250;37.668;2023-07-13T12:11:16;4.22;;;2.45;;
45368;SDS011;51342;55.250;37.668;2023-07-13T12:13:49;3.03;;;2.40;;
45368;SDS011;51342;55.250;37.668;2023-07-13T12:18:59;4.40;;;2.75;;
45368;SDS011;51342;55.250;37.668;2023-07-13T12:24:43;5.32;;;2.50;;
45368;SDS011;51342;55.250;37.668;2023-07-13T12:27:23;5.07;;;2.60;;
45368;SDS011;51342;55.250;37.668;2023-07-13T12:29:59;6.60;;;2.80;;
45368;SDS011;51342;55.250;37.668;2023-07-13T12:32:31;6.50;;;3.28;;
45368;SDS011;51342;55.250;37.668;2023-07-13T12:35:21;5.25;;;2.70;;
45368;SDS011;51342;55.250;37.668;2023-07-13T12:37:53;3.65;;;2.65;;
45368;SDS011;51342;55.250;37.668;2023-07-13T12:40:26;4.22;;;2.72;;
45368;SDS011;51342;55.250;37.668;2023-07-13T12:43:03;4.05;;;2.65;;
45368;SDS011;51342;55.250;37.668;2023-07-13T12:45:37;4.95;;;2.95;;
45368;SDS011;51342;55.250;37.668;2023-07-13T12:48:15;8.88;;;2.85;;
45368;SDS011;51342;55.250;37.668;2023-07-13T12:50:48;5.45;;;2.42;;
45368;SDS011;51342;55.250;37.668;2023-07-13T12:53:23;5.95;;;3.08;;
45368;SDS011;51342;55.250;37.668;2023-07-13T12:56:04;4.55;;;2.80;;
45368;SDS011;51342;55.250;37.668;2023-07-13T12:58:39;3.80;;;2.78;;
45368;SDS011;51342;55.250;37.668;2023-07-13T13:01:14;4.57;;;3.25;;
45368;SDS011;51342;55.250;37.668;2023-07-13T13:03:48;6.97;;;3.28;;
45368;SDS011;51342;55.250;37.668;2023-07-13T13:06:28;4.65;;;3.17;;
45368;SDS011;51342;55.250;37.668;2023-07-13T13:09:00;5.60;;;3.50;;
45368;SDS011;51342;55.250;37.668;2023-07-13T13:11:32;6.10;;;3.65;;
45368;SDS011;51342;55.250;37.668;2023-07-13T13:14:03;7.72;;;4.40;;
45368;SDS011;51342;55.250;37.668;2023-07-13T13:16:37;4.82;;;3.45;;
45368;SDS011;51342;55.250;37.668;2023-07-13T13:19:17;4.95;;;3.15;;
45368;SDS011;51342;55.250;37.668;2023-07-13T13:21:49;4.28;;;3.13;;
45368;SDS011;51342;55.250;37.668;2023-07-13T13:24:24;7.18;;;3.33;;
45368;SDS011;51342;55.250;37.668;2023-07-13T13:26:58;4.55;;;3.13;;
45368;SDS011;51342;55.250;37.668;2023-07-13T13:29:31;5.00;;;2.97;;
45368;SDS011;51342;55.250;37.668;2023-07-13T13:32:04;3.28;;;2.83;;
45368;SDS011;51342;55.250;37.668;2023-07-13T13:34:36;4.63;;;3.67;;
45368;SDS011;51342;55.250;37.668;2023-07-13T13:37:29;5.43;;;3.72;;
45368;SDS011;51342;55.250;37.668;2023-07-13T13:39:59;7.60;;;3.40;;
45368;SDS011;51342;55.250;37.668;2023-07-13T13:42:31;5.15;;;3.50;;
45368;SDS011;51342;55.250;37.668;2023-07-13T13:45:02;4.07;;;3.30;;
45368;SDS011;51342;55.250;37.668;2023-07-13T13:47:34;4.97;;;3.47;;
45368;SDS011;51342;55.250;37.668;2023-07-13T13:50:14;4.75;;;3.53;;
45368;SDS011;51342;55.250;37.668;2023-07-13T13:52:46;4.68;;;3.28;;
45368;SDS011;51342;55.250;37.668;2023-07-13T13:55:18;3.45;;;2.40;;
45368;SDS011;51342;55.250;37.668;2023-07-13T13:57:51;5.53;;;3.15;;
45368;SDS011;51342;55.250;37.668;2023-07-13T14:00:22;5.35;;;2.85;;
45368;SDS011;51342;55.250;37.668;2023-07-13T14:02:55;3.50;;;3.20;;
45368;SDS011;51342;55.250;37.668;2023-07-13T14:05:28;4.70;;;3.13;;
45368;SDS011;51342;55.250;37.668;2023-07-13T14:08:01;7.65;;;3.10;;
45368;SDS011;51342;55.250;37.668;2023-07-13T14:10:32;4.20;;;3.03;;
45368;SDS011;51342;55.250;37.668;2023-07-13T14:13:03;4.20;;;3.03;;
45368;SDS011;51342;55.250;37.668;2023-07-13T14:15:37;5.55;;;3.30;;
45368;SDS011;51342;55.250;37.668;2023-07-13T14:18:08;5.65;;;3.50;;
45368;SDS011;51342;55.250;37.668;2023-07-13T14:20:40;6.10;;;3.20;;
45368;SDS011;51342;55.250;37.668;2023-07-13T14:26:00;3.80;;;2.72;;
45368;SDS011;51342;55.250;37.668;2023-07-13T14:28:31;4.72;;;3.38;;
45368;SDS011;51342;55.250;37.668;2023-07-13T14:31:03;4.65;;;3.47;;
45368;SDS011;51342;55.250;37.668;2023-07-13T14:33:34;4.43;;;3.03;;
45368;SDS011;51342;55.250;37.668;2023-07-13T14:36:16;6.40;;;3.42;;
45368;SDS011;51342;55.250;37.668;2023-07-13T14:39:01;3.75;;;3.10;;
45368;SDS011;51342;55.250;37.668;2023-07-13T14:41:45;5.05;;;3.40;;
45368;SDS011;51342;55.250;37.668;2023-07-13T14:44:17;5.18;;;3.40;;
45368;SDS011;51342;55.250;37.668;2023-07-13T14:46:51;5.80;;;3.38;;
45368;SDS011;51342;55.250;37.668;2023-07-13T14:49:33;5.03;;;3.50;;
45368;SDS011;51342;55.250;37.668;2023-07-13T14:52:12;6.15;;;3.70;;
45368;SDS011;51342;55.250;37.668;2023-07-13T14:54:47;6.37;;;4.27;;
45368;SDS011;51342;55.250;37.668;2023-07-13T14:57:19;4.80;;;3.92;;
45368;SDS011;51342;55.250;37.668;2023-07-13T14:59:50;7.10;;;4.07;;
45368;SDS011;51342;55.250;37.668;2023-07-13T15:05:17;5.05;;;4.38;;
45368;SDS011;51342;55.250;37.668;2023-07-13T15:07:50;5.45;;;4.43;;
45368;SDS011;51342;55.250;37.668;2023-07-13T15:10:25;6.03;;;4.35;;
45368;SDS011;51342;55.250;37.668;2023-07-13T15:13:00;5.40;;;4.40;;
45368;SDS011;51342;55.250;37.668;2023-07-13T15:15:33;5.25;;;4.55;;
45368;SDS011;51342;55.250;37.668;2023-07-13T15:18:09;5.53;;;4.25;;
45368;SDS011;51342;55.250;37.668;2023-07-13T15:20:43;5.78;;;4.30;;
45368;SDS011;51342;55.250;37.668;2023-07-13T15:23:16;5.80;;;4.28;;
45368;SDS011;51342;55.250;37.668;2023-07-13T15:25:48;6.72;;;4.32;;
45368;SDS011;51342;55.250;37.668;2023-07-13T15:28:20;6.55;;;5.57;;
45368;SDS011;51342;55.250;37.668;2023-07-13T15:30:51;4.15;;;3.22;;
45368;SDS011;51342;55.250;37.668;2023-07-13T15:33:28;6.10;;;4.85;;
45368;SDS011;51342;55.250;37.668;2023-07-13T15:36:00;5.72;;;4.30;;
45368;SDS011;51342;55.250;37.668;2023-07-13T15:38:32;6.22;;;4.32;;
45368;SDS011;51342;55.250;37.668;2023-07-13T15:41:12;5.40;;;3.88;;
45368;SDS011;51342;55.250;37.668;2023-07-13T15:43:52;4.72;;;3.60;;
45368;SDS011;51342;55.250;37.668;2023-07-13T15:46:28;5.10;;;3.65;;
45368;SDS011;51342;55.250;37.668;2023-07-13T15:49:00;4.28;;;3.38;;
45368;SDS011;51342;55.250;37.668;2023-07-13T15:51:31;6.47;;;3.92;;
45368;SDS011;51342;55.250;37.668;2023-07-13T15:54:05;5.55;;;3.38;;
45368;SDS011;51342;55.250;37.668;2023-07-13T15:56:37;5.32;;;3.63;;
45368;SDS011;51342;55.250;37.668;2023-07-13T15:59:11;7.15;;;3.78;;
45368;SDS011;51342;55.250;37.668;2023-07-13T16:01:45;6.07;;;3.75;;
45368;SDS011;51342;55.250;37.668;2023-07-13T16:04:19;7.07;;;3.88;;
45368;SDS011;51342;55.250;37.668;2023-07-13T16:06:50;8.68;;;3.78;;
45368;SDS011;51342;55.250;37.668;2023-07-13T16:09:22;8.07;;;3.80;;
45368;SDS011;51342;55.250;37.668;2023-07-13T16:11:54;6.85;;;3.42;;
45368;SDS011;51342;55.250;37.668;2023-07-13T16:14:28;5.72;;;3.97;;
45368;SDS011;51342;55.250;37.668;2023-07-13T16:17:00;5.60;;;4.03;;
45368;SDS011;51342;55.250;37.668;2023-07-13T16:19:31;7.47;;;4.28;;
45368;SDS011;51342;55.250;37.668;2023-07-13T16:25:16;6.43;;;4.35;;